createdAt,value
2023-01-13T00:01:14.696Z,-2.26
2023-01-13T00:04:00.456Z,-2.25
2023-01-13T00:06:45.046Z,-2.30
2023-01-13T00:09:30.216Z,-2.32
2023-01-13T00:12:15.125Z,-2.36
2023-01-13T00:15:00.002Z,-2.37
2023-01-13T00:17:45.164Z,-2.35
2023-01-13T00:20:30.095Z,-2.38
2023-01-13T00:23:15.029Z,-2.38
2023-01-13T00:26:02.753Z,-2.39
2023-01-13T00:28:47.951Z,-2.40
2023-01-13T00:31:32.637Z,-2.39
2023-01-13T00:34:17.350Z,-2.34
2023-01-13T00:37:02.210Z,-2.33
2023-01-13T00:39:46.951Z,-2.35
2023-01-13T00:42:50.237Z,-2.36
2023-01-13T00:45:35.187Z,-2.37
2023-01-13T00:48:20.632Z,-2.35
2023-01-13T00:51:14.305Z,-2.36
2023-01-13T00:53:59.116Z,-2.37
2023-01-13T00:56:43.979Z,-2.30
2023-01-13T00:59:28.609Z,-2.32
2023-01-13T01:02:13.271Z,-2.29
2023-01-13T01:04:59.401Z,-2.29
2023-01-13T01:07:44.074Z,-2.32
2023-01-13T01:10:29.180Z,-2.33
2023-01-13T01:13:16.691Z,-2.32
2023-01-13T01:16:10.127Z,-2.36
2023-01-13T01:18:55.798Z,-2.39
2023-01-13T01:21:40.741Z,-2.43
2023-01-13T01:24:25.670Z,-2.42
2023-01-13T01:27:10.166Z,-2.46
2023-01-13T01:29:55.395Z,-2.48
2023-01-13T01:32:40.237Z,-2.52
2023-01-13T01:35:25.148Z,-2.54
2023-01-13T01:38:09.707Z,-2.57
2023-01-13T01:40:54.661Z,-2.57
2023-01-13T01:43:58.728Z,-2.57
2023-01-13T01:46:44.556Z,-2.57
2023-01-13T01:49:36.457Z,-2.55
2023-01-13T01:52:35.473Z,-2.61
2023-01-13T01:55:23.793Z,-2.61
2023-01-13T01:58:14.890Z,-2.64
2023-01-13T02:00:59.782Z,-2.64
2023-01-13T02:03:47.193Z,-2.64
2023-01-13T02:06:32.072Z,-2.68
2023-01-13T02:09:17.248Z,-2.69
2023-01-13T02:12:21.070Z,-2.70
2023-01-13T02:15:12.677Z,-2.71
2023-01-13T02:18:37.009Z,-2.71
2023-01-13T02:21:50.335Z,-2.70
2023-01-13T02:25:09.447Z,-2.69
2023-01-13T02:28:31.871Z,-2.68
2023-01-13T02:31:35.724Z,-2.67
2023-01-13T02:34:32.771Z,-2.66
2023-01-13T02:37:28.106Z,-2.66
2023-01-13T02:40:28.631Z,-2.64
2023-01-13T02:43:41.226Z,-2.67
2023-01-13T02:46:34.192Z,-2.64
2023-01-13T02:49:43.367Z,-2.66
2023-01-13T02:52:42.997Z,-2.64
2023-01-13T02:55:36.927Z,-2.62
2023-01-13T02:58:28.187Z,-2.65
2023-01-13T03:01:13.396Z,-2.68
2023-01-13T03:03:58.115Z,-2.64
2023-01-13T03:07:03.007Z,-2.67
2023-01-13T03:10:10.796Z,-2.64
2023-01-13T03:13:20.475Z,-2.67
2023-01-13T03:16:11.419Z,-2.65
2023-01-13T03:18:59.585Z,-2.64
2023-01-13T03:22:16.878Z,-2.62
2023-01-13T03:25:13.186Z,-2.60
2023-01-13T03:28:03.425Z,-2.60
2023-01-13T03:30:54.208Z,-2.58
2023-01-13T03:33:45.129Z,-2.56
2023-01-13T03:36:33.868Z,-2.53
2023-01-13T03:39:27.946Z,-2.50
2023-01-13T03:42:25.508Z,-2.47
2023-01-13T03:45:13.794Z,-2.45
2023-01-13T03:48:00.777Z,-2.44
2023-01-13T03:50:50.141Z,-2.44
2023-01-13T03:53:56.008Z,-2.43
2023-01-13T03:56:43.271Z,-2.40
2023-01-13T03:59:36.958Z,-2.41
2023-01-13T04:02:44.821Z,-2.39
2023-01-13T04:05:33.007Z,-2.38
2023-01-13T04:08:25.180Z,-2.40
2023-01-13T04:11:22.905Z,-2.38
2023-01-13T04:14:09.997Z,-2.36
2023-01-13T04:16:55.147Z,-2.35
2023-01-13T04:19:39.868Z,-2.33
2023-01-13T04:22:24.308Z,-2.33
2023-01-13T04:25:09.490Z,-2.31
2023-01-13T04:27:54.190Z,-2.33
2023-01-13T04:30:39.772Z,-2.28
2023-01-13T04:33:24.563Z,-2.29
2023-01-13T04:36:09.484Z,-2.27
2023-01-13T04:38:54.564Z,-2.29
2023-01-13T04:41:57.560Z,-2.27
2023-01-13T04:44:42.399Z,-2.26
2023-01-13T04:47:27.378Z,-2.27
2023-01-13T04:50:12.285Z,-2.26
2023-01-13T04:52:56.992Z,-2.23
2023-01-13T04:55:43.653Z,-2.22
2023-01-13T04:58:28.455Z,-2.22
2023-01-13T05:01:13.377Z,-2.21
2023-01-13T05:03:58.448Z,-2.21
2023-01-13T05:06:42.978Z,-2.21
2023-01-13T05:09:27.863Z,-2.20
2023-01-13T05:12:31.435Z,-2.19
2023-01-13T05:15:34.690Z,-2.21
2023-01-13T05:18:19.998Z,-2.19
2023-01-13T05:21:25.209Z,-2.20
2023-01-13T05:24:28.541Z,-2.19
2023-01-13T05:27:13.493Z,-2.20
2023-01-13T05:29:58.686Z,-2.17
2023-01-13T05:32:43.270Z,-2.19
2023-01-13T05:35:28.648Z,-2.21
2023-01-13T05:38:13.860Z,-2.21
2023-01-13T05:41:18.297Z,-2.19
2023-01-13T05:44:03.356Z,-2.18
2023-01-13T05:46:48.472Z,-2.18
2023-01-13T05:49:33.362Z,-2.17
2023-01-13T05:52:18.067Z,-2.17
2023-01-13T05:55:03.141Z,-2.14
2023-01-13T05:57:47.668Z,-2.15
2023-01-13T06:00:32.819Z,-2.15
2023-01-13T06:03:21.652Z,-2.14
2023-01-13T06:06:08.180Z,-2.14
2023-01-13T06:08:52.987Z,-2.15
2023-01-13T06:11:37.556Z,-2.14
2023-01-13T06:14:22.530Z,-2.16
2023-01-13T06:17:08.196Z,-2.11
2023-01-13T06:19:53.114Z,-2.12
2023-01-13T06:22:43.339Z,-2.10
2023-01-13T06:25:28.413Z,-2.09
2023-01-13T06:28:13.035Z,-2.08
2023-01-13T06:30:59.623Z,-2.08
2023-01-13T06:33:52.999Z,-2.10
2023-01-13T06:36:44.010Z,-2.08
2023-01-13T06:39:30.556Z,-2.09
2023-01-13T06:42:33.690Z,-2.07
2023-01-13T06:45:18.738Z,-2.06
2023-01-13T06:48:03.559Z,-2.01
2023-01-13T06:50:48.114Z,-1.98
2023-01-13T06:53:33.151Z,-1.97
2023-01-13T06:56:17.989Z,-1.95
2023-01-13T06:59:02.930Z,-1.92
2023-01-13T07:01:47.680Z,-1.94
2023-01-13T07:04:32.365Z,-1.91
2023-01-13T07:07:17.005Z,-1.92
2023-01-13T07:10:02.736Z,-1.93
2023-01-13T07:13:07.493Z,-1.86
2023-01-13T07:15:57.059Z,-1.86
2023-01-13T07:18:43.515Z,-1.88
2023-01-13T07:21:29.251Z,-1.86
2023-01-13T07:24:14.365Z,-1.87
2023-01-13T07:26:59.333Z,-1.78
2023-01-13T07:29:44.101Z,-1.79
2023-01-13T07:32:32.438Z,-1.78
2023-01-13T07:35:22.391Z,-1.77
2023-01-13T07:38:07.815Z,-1.74
2023-01-13T10:52:30.061Z,-0.37
2023-01-13T10:55:27.208Z,-0.32
2023-01-13T10:58:13.526Z,-0.24
2023-01-13T11:01:01.955Z,-0.24
2023-01-13T11:03:47.624Z,-0.19
2023-01-13T11:06:34.840Z,-0.17
2023-01-13T11:09:22.031Z,-0.18
2023-01-13T11:12:31.008Z,-0.16
2023-01-13T11:15:21.425Z,-0.18
2023-01-13T11:18:14.720Z,-0.25
2023-01-13T11:21:01.108Z,-0.26
2023-01-13T11:23:53.926Z,-0.22
2023-01-13T11:26:53.085Z,-0.24
2023-01-13T11:29:50.482Z,-0.23
2023-01-13T11:32:47.712Z,-0.23
2023-01-13T11:35:40.071Z,-0.22
2023-01-13T11:38:45.515Z,-0.28
2023-01-13T11:41:47.179Z,-0.31
2023-01-13T11:44:41.200Z,-0.32
2023-01-13T11:47:27.451Z,-0.41
2023-01-13T11:50:33.920Z,-0.48
2023-01-13T11:53:38.000Z,-0.53
2023-01-13T11:56:34.794Z,-0.58
2023-01-13T11:59:25.314Z,-0.56
2023-01-13T12:02:15.876Z,-0.57
2023-01-13T12:05:18.773Z,-0.58
2023-01-13T12:08:37.851Z,-0.57
2023-01-13T12:12:06.580Z,-0.59
2023-01-13T12:15:19.253Z,-0.54
2023-01-13T12:18:12.755Z,-0.55
2023-01-13T12:21:08.470Z,-0.52
2023-01-13T12:24:10.392Z,-0.47
2023-01-13T12:26:59.982Z,-0.45
2023-01-13T12:29:48.347Z,-0.44
2023-01-13T12:32:37.518Z,-0.48
2023-01-13T12:35:39.420Z,-0.47
2023-01-13T12:38:37.118Z,-0.49
2023-01-13T12:41:22.837Z,-0.50
2023-01-13T12:44:17.551Z,-0.53
2023-01-13T12:47:02.855Z,-0.58
2023-01-13T12:49:47.484Z,-0.55
2023-01-13T12:52:45.090Z,-0.54
2023-01-13T12:55:33.844Z,-0.51
2023-01-13T12:58:27.600Z,-0.52
2023-01-13T13:01:14.557Z,-0.55
2023-01-13T13:04:48.035Z,-0.59
2023-01-13T13:07:44.733Z,-0.59
2023-01-13T13:10:31.349Z,-0.62
2023-01-13T13:13:47.034Z,-0.59
2023-01-13T13:16:35.552Z,-0.57
2023-01-13T13:19:20.710Z,-0.53
2023-01-13T13:22:09.296Z,-0.54
2023-01-13T13:24:54.522Z,-0.54
2023-01-13T13:27:49.487Z,-0.55
2023-01-13T13:30:38.805Z,-0.57
2023-01-13T13:33:26.672Z,-0.56
2023-01-13T13:36:26.315Z,-0.59
2023-01-13T13:39:49.242Z,-0.61
2023-01-13T13:43:07.323Z,-0.68
2023-01-13T13:46:10.745Z,-0.71
2023-01-13T13:48:55.601Z,-0.73
2023-01-13T13:52:02.232Z,-0.76
2023-01-13T13:54:51.508Z,-0.81
2023-01-13T13:57:39.822Z,-0.84
2023-01-13T14:00:30.247Z,-0.82
2023-01-13T14:03:26.239Z,-0.81
2023-01-13T14:06:24.035Z,-0.82
2023-01-13T14:09:17.236Z,-0.78
2023-01-13T14:12:06.131Z,-0.80
2023-01-13T14:14:52.106Z,-0.78
2023-01-13T14:17:38.029Z,-0.74
2023-01-13T14:20:23.148Z,-0.77
2023-01-13T14:23:17.041Z,-0.79
2023-01-13T14:26:08.232Z,-0.77
2023-01-13T14:28:55.228Z,-0.75
2023-01-13T14:31:40.499Z,-0.75
2023-01-13T14:34:31.279Z,-0.75
2023-01-13T14:37:25.031Z,-0.74
2023-01-13T14:40:43.990Z,-0.73
2023-01-13T14:43:28.902Z,-0.72
2023-01-13T14:46:15.057Z,-0.71
2023-01-13T14:49:01.272Z,-0.70
2023-01-13T14:51:46.341Z,-0.70
2023-01-13T14:54:48.067Z,-0.70
2023-01-13T14:57:34.224Z,-0.71
2023-01-13T15:00:21.601Z,-0.73
2023-01-13T15:03:07.521Z,-0.73
2023-01-13T15:05:52.968Z,-0.76
2023-01-13T15:08:39.255Z,-0.75
2023-01-13T15:11:28.128Z,-0.76
2023-01-13T15:14:24.865Z,-0.74
2023-01-13T15:17:16.084Z,-0.73
2023-01-13T15:20:00.930Z,-0.70
2023-01-13T15:22:46.862Z,-0.71
2023-01-13T15:25:32.855Z,-0.73
2023-01-13T15:28:26.334Z,-0.72
2023-01-13T15:31:11.115Z,-0.72
2023-01-13T15:33:58.090Z,-0.74
2023-01-13T15:36:43.411Z,-0.74
2023-01-13T15:39:27.853Z,-0.71
2023-01-13T15:42:31.462Z,-0.77
2023-01-13T15:45:34.881Z,-0.78
2023-01-13T15:48:21.840Z,-0.84
2023-01-13T15:51:06.572Z,-0.83
2023-01-13T15:53:51.409Z,-0.83
2023-01-13T15:56:36.639Z,-0.81
2023-01-13T15:59:25.746Z,-0.83
2023-01-13T16:02:15.418Z,-0.85
2023-01-13T16:05:00.418Z,-0.82
2023-01-13T16:07:45.591Z,-0.80
2023-01-13T16:10:30.531Z,-0.82
2023-01-13T16:13:16.513Z,-0.87
2023-01-13T16:16:01.395Z,-0.91
2023-01-13T16:18:46.459Z,-0.92
2023-01-13T16:21:31.104Z,-0.96
2023-01-13T16:24:15.993Z,-0.97
2023-01-13T16:27:00.911Z,-0.99
2023-01-13T16:29:46.232Z,-1.00
2023-01-13T16:32:31.203Z,-1.02
2023-01-13T16:35:18.280Z,-1.05
2023-01-13T16:38:03.271Z,-1.06
2023-01-13T16:40:48.321Z,-1.05
2023-01-13T16:43:33.556Z,-1.01
2023-01-13T16:46:19.588Z,-1.02
2023-01-13T16:49:05.690Z,-1.02
2023-01-13T16:51:50.730Z,-1.03
2023-01-13T16:54:35.760Z,-1.04
2023-01-13T16:57:20.453Z,-1.01
2023-01-13T17:00:06.337Z,-1.01
2023-01-13T17:07:02.430Z,-1.02
2023-01-13T17:09:47.763Z,-1.06
2023-01-13T17:12:33.435Z,-1.05
2023-01-13T17:15:19.363Z,-1.02
2023-01-13T17:18:04.734Z,-1.01
2023-01-13T17:20:49.655Z,-1.00
2023-01-13T17:23:34.659Z,-1.03
2023-01-13T17:26:22.875Z,-1.03
2023-01-13T17:29:14.518Z,-1.05
2023-01-13T17:32:00.628Z,-1.03
2023-01-13T17:34:46.153Z,-1.00
2023-01-13T17:37:31.125Z,-0.98
2023-01-13T17:40:17.324Z,-0.98
2023-01-13T17:43:02.482Z,-0.99
2023-01-13T17:45:47.586Z,-0.99
2023-01-13T17:48:32.417Z,-0.96
2023-01-13T17:51:18.373Z,-0.96
2023-01-13T17:54:04.500Z,-0.97
2023-01-13T17:56:51.005Z,-0.96
2023-01-13T17:59:36.651Z,-0.92
2023-01-13T18:02:24.406Z,-0.95
2023-01-13T18:05:09.925Z,-0.94
2023-01-13T18:07:55.343Z,-0.95
2023-01-13T18:10:40.520Z,-1.00
2023-01-13T18:13:26.030Z,-1.02
2023-01-13T18:16:12.927Z,-1.01
2023-01-13T18:19:18.064Z,-1.01
2023-01-13T18:22:23.946Z,-1.03
2023-01-13T18:25:32.366Z,-1.04
2023-01-13T18:28:17.341Z,-1.03
2023-01-13T18:31:02.884Z,-1.04
2023-01-13T18:33:47.921Z,-1.03
2023-01-13T18:36:32.896Z,-1.03
2023-01-13T18:39:18.300Z,-1.02
2023-01-13T18:42:22.177Z,-1.02
2023-01-13T18:45:08.250Z,-1.03
2023-01-13T18:47:56.993Z,-1.06
2023-01-13T18:50:41.686Z,-1.06
2023-01-13T18:53:26.496Z,-1.05
2023-01-13T18:56:12.671Z,-1.04
2023-01-13T18:58:58.064Z,-1.02
2023-01-13T19:01:43.475Z,-1.06
2023-01-13T19:04:28.782Z,-1.06
2023-01-13T19:07:21.609Z,-1.08
2023-01-13T19:10:09.102Z,-1.11
2023-01-13T19:12:53.799Z,-1.07
2023-01-13T19:15:38.610Z,-1.06
2023-01-13T19:18:23.439Z,-1.09
2023-01-13T19:21:08.379Z,-1.05
2023-01-13T19:23:54.163Z,-1.06
2023-01-13T19:26:38.623Z,-1.10
2023-01-13T19:29:23.591Z,-1.08
2023-01-13T19:32:08.494Z,-1.07
2023-01-13T19:34:54.462Z,-1.08
2023-01-13T19:37:39.719Z,-1.09
2023-01-13T19:40:24.812Z,-1.08
2023-01-13T19:43:28.026Z,-1.09
2023-01-13T19:46:13.406Z,-1.09
2023-01-13T19:48:57.793Z,-1.06
2023-01-13T19:51:42.458Z,-1.07
2023-01-13T19:54:27.322Z,-1.06
2023-01-13T19:57:12.750Z,-1.06
2023-01-13T19:59:57.708Z,-1.02
2023-01-13T20:02:48.388Z,-1.04
2023-01-13T20:05:33.373Z,-1.07
2023-01-13T20:08:18.716Z,-1.06
2023-01-13T20:11:21.502Z,-1.08
2023-01-13T20:14:06.262Z,-1.10
2023-01-13T20:16:51.165Z,-1.10
2023-01-13T20:19:36.062Z,-1.07
2023-01-13T20:22:20.675Z,-1.08
2023-01-13T20:25:05.703Z,-1.07
2023-01-13T20:27:50.474Z,-1.08
2023-01-13T20:30:35.278Z,-1.10
2023-01-13T20:33:19.921Z,-1.10
2023-01-13T20:36:05.167Z,-1.09
2023-01-13T20:38:50.201Z,-1.11
2023-01-13T20:41:53.681Z,-1.10
2023-01-13T20:44:38.806Z,-1.12
2023-01-13T20:47:23.854Z,-1.13
2023-01-13T20:50:08.584Z,-1.12
2023-01-13T20:52:53.534Z,-1.11
2023-01-13T20:55:39.344Z,-1.09
2023-01-13T20:58:24.329Z,-1.11
2023-01-13T21:01:08.814Z,-1.08
2023-01-13T21:03:57.659Z,-1.10
2023-01-13T21:06:42.652Z,-1.11
2023-01-13T21:09:27.429Z,-1.10
2023-01-13T21:12:35.138Z,-1.12
2023-01-13T21:15:21.242Z,-1.14
2023-01-13T21:18:24.783Z,-1.17
2023-01-13T21:21:12.693Z,-1.18
2023-01-13T21:23:57.741Z,-1.17
2023-01-13T21:26:42.628Z,-1.17
2023-01-13T21:29:27.638Z,-1.16
2023-01-13T21:32:12.396Z,-1.17
2023-01-13T21:34:58.364Z,-1.18
2023-01-13T21:37:43.611Z,-1.15
2023-01-13T21:40:28.467Z,-1.14
2023-01-13T21:43:31.788Z,-1.16
2023-01-13T21:46:35.074Z,-1.17
2023-01-13T21:49:19.832Z,-1.17
2023-01-13T21:52:04.704Z,-1.15
2023-01-13T21:55:08.229Z,-1.13
2023-01-13T21:58:11.089Z,-1.11
2023-01-13T22:00:56.064Z,-1.11
2023-01-13T22:03:59.154Z,-1.12
2023-01-13T22:06:44.001Z,-1.11
2023-01-13T22:09:29.904Z,-1.13
2023-01-13T22:12:17.315Z,-1.11
2023-01-13T22:15:02.274Z,-1.10
2023-01-13T22:17:49.234Z,-1.08
2023-01-13T22:20:33.769Z,-1.07
2023-01-13T22:23:20.729Z,-1.06
2023-01-13T22:26:07.139Z,-1.04
2023-01-13T22:28:51.960Z,-1.02
2023-01-13T22:31:37.694Z,-1.02
2023-01-13T22:34:22.722Z,-1.03
2023-01-13T22:37:07.955Z,-1.03
2023-01-13T22:39:52.686Z,-1.10
2023-01-13T22:42:39.454Z,-1.09
2023-01-13T22:45:24.506Z,-1.14
2023-01-13T22:48:09.506Z,-1.15
2023-01-13T22:50:54.674Z,-1.16
2023-01-13T22:53:40.780Z,-1.16
2023-01-13T22:56:26.335Z,-1.21
2023-01-13T22:59:12.796Z,-1.19
2023-01-13T23:01:57.349Z,-1.19
2023-01-13T23:04:42.577Z,-1.23
2023-01-13T23:07:27.441Z,-1.24
2023-01-13T23:10:12.253Z,-1.29
2023-01-13T23:12:57.098Z,-1.32
2023-01-13T23:15:42.099Z,-1.35
2023-01-13T23:18:26.959Z,-1.32
2023-01-13T23:21:15.011Z,-1.32
2023-01-13T23:24:00.093Z,-1.33
2023-01-13T23:26:44.808Z,-1.34
2023-01-13T23:29:29.922Z,-1.35
2023-01-13T23:32:14.841Z,-1.36
2023-01-13T23:34:59.763Z,-1.35
2023-01-13T23:37:44.707Z,-1.35
2023-01-13T23:40:29.214Z,-1.38
2023-01-13T23:43:13.720Z,-1.37
2023-01-13T23:46:02.750Z,-1.37
2023-01-13T23:48:48.846Z,-1.35
2023-01-13T23:51:33.761Z,-1.37
2023-01-13T23:54:18.876Z,-1.37
2023-01-13T23:57:03.866Z,-1.38
2023-01-13T23:59:48.682Z,-1.41
